Terminal Aerodrome Forecast
Issued by NWS Nashville, TN

Home | Current Version | Previous Version | Text Only | Print | Product List | Glossary On
Versions: 1 2 3 4 5 6 7 8 9 10 11 12 13 14 15 16 17 18 19 20 21
000
FTUS44 KOHX 050001 AAA
TAFCSV
TAF AMD
KCSV 050001Z 0500/0524 19007KT 3SM -SHRA BR OVC005
     FM050600 27004KT 2SM BR OVC003
     FM050900 36003KT 1/2SM FG OVC001
     FM051500 05006KT 2SM BR OVC003
     FM051700 08005KT P6SM OVC007
     FM052000 09005KT P6SM VCSH OVC009=

USA.gov is the U.S. government's official web portal to all federal, state and local government web resources and services.